Time;durP1;ratioP1;P1;durP2;ratioP2;P2;SDS_P1;SDS_P2;PMS_P1;PMS_P2;Temp;Humidity;BMP_temperature;BMP_pressure;BME280_temperature;BME280_humidity;BME280_pressure;Samples;Min_cycle;Max_cycle;Signal;HPM_P1;HPM_P2
2021/01/23 00:01:19;;;;;;;11.75;8.13;;;4.50;88.80;;;;;;5048077;28;20361;-79
2021/01/23 00:03:45;;;;;;;15.32;9.00;;;4.50;88.70;;;;;;5047501;28;20029;-78
2021/01/23 00:06:10;;;;;;;15.70;8.57;;;4.60;89.00;;;;;;5051423;28;20033;-79
2021/01/23 00:08:36;;;;;;;13.63;8.43;;;4.60;88.90;;;;;;5047058;28;20036;-79
2021/01/23 00:11:02;;;;;;;17.02;8.23;;;4.60;88.60;;;;;;5046970;28;20052;-79
2021/01/23 00:13:28;;;;;;;15.50;8.63;;;4.60;88.60;;;;;;5050692;28;20079;-79
2021/01/23 00:15:54;;;;;;;14.77;8.15;;;4.60;88.50;;;;;;5051415;28;20045;-78
2021/01/23 00:18:19;;;;;;;14.57;8.65;;;4.70;88.50;;;;;;5045101;28;20021;-79
2021/01/23 00:20:45;;;;;;;12.80;8.02;;;4.60;88.40;;;;;;5048488;28;20044;-79
2021/01/23 00:23:11;;;;;;;13.45;8.90;;;4.60;88.40;;;;;;5047699;28;20029;-79
2021/01/23 00:25:36;;;;;;;16.67;8.23;;;4.60;88.60;;;;;;5049711;28;20052;-78
2021/01/23 00:28:03;;;;;;;13.18;8.20;;;4.60;88.60;;;;;;5049763;28;20029;-79
2021/01/23 00:30:29;;;;;;;12.90;7.75;;;4.70;88.50;;;;;;5046055;28;20040;-80
2021/01/23 00:32:55;;;;;;;11.77;7.55;;;4.70;88.40;;;;;;5046927;28;20399;-78
2021/01/23 00:35:20;;;;;;;16.35;9.02;;;4.70;88.50;;;;;;5047389;28;20510;-79
2021/01/23 00:37:48;;;;;;;12.43;7.97;;;4.70;88.50;;;;;;5049409;28;20032;-79
2021/01/23 00:40:14;;;;;;;13.60;8.05;;;4.70;88.40;;;;;;5052130;28;20528;-79
2021/01/23 00:42:40;;;;;;;12.10;7.70;;;4.70;88.50;;;;;;5054262;28;20032;-79
2021/01/23 00:45:06;;;;;;;12.57;8.52;;;4.70;88.60;;;;;;5053275;28;20043;-79
2021/01/23 00:47:32;;;;;;;14.25;8.55;;;4.70;88.50;;;;;;5049294;28;20124;-79
2021/01/23 00:49:58;;;;;;;12.80;7.95;;;4.70;88.60;;;;;;5055860;28;20429;-79
2021/01/23 00:52:23;;;;;;;14.05;8.88;;;4.70;88.70;;;;;;5047587;28;20401;-79
2021/01/23 00:54:49;;;;;;;12.73;7.85;;;4.70;88.60;;;;;;5044208;28;20027;-79
2021/01/23 00:57:15;;;;;;;12.57;7.50;;;4.70;88.70;;;;;;5047392;28;20830;-79
2021/01/23 00:59:40;;;;;;;14.52;7.50;;;4.60;88.60;;;;;;5049866;28;20052;-80
2021/01/23 01:02:06;;;;;;;12.48;7.30;;;4.60;88.80;;;;;;5050797;28;20072;-79
2021/01/23 01:04:32;;;;;;;14.43;7.97;;;4.60;88.80;;;;;;5048994;28;20195;-79
2021/01/23 01:06:57;;;;;;;11.38;6.65;;;4.60;88.80;;;;;;5049149;28;20024;-80
2021/01/23 01:09:23;;;;;;;14.00;6.82;;;4.60;88.70;;;;;;5047825;28;20564;-79
2021/01/23 01:11:48;;;;;;;13.68;7.82;;;4.60;88.60;;;;;;5057159;28;20040;-79
2021/01/23 01:14:14;;;;;;;14.65;7.40;;;4.60;88.70;;;;;;5048023;28;20031;-80
2021/01/23 01:16:40;;;;;;;12.30;6.85;;;4.60;88.70;;;;;;5052303;28;20029;-79
2021/01/23 01:19:05;;;;;;;11.80;7.20;;;4.50;88.70;;;;;;5053367;28;20455;-79
2021/01/23 01:21:31;;;;;;;9.13;6.00;;;4.40;88.80;;;;;;5047232;28;20124;-79
2021/01/23 01:23:56;;;;;;;9.50;5.85;;;4.50;88.80;;;;;;5051156;28;20391;-79
2021/01/23 01:26:22;;;;;;;10.57;5.72;;;4.40;88.70;;;;;;5047162;28;20025;-79
2021/01/23 01:28:48;;;;;;;11.43;5.78;;;4.40;88.80;;;;;;5046631;28;20036;-79
2021/01/23 01:31:13;;;;;;;10.57;6.50;;;4.30;88.70;;;;;;5051445;28;20416;-79
2021/01/23 01:33:39;;;;;;;8.85;5.78;;;4.30;88.80;;;;;;5055504;28;20074;-79
2021/01/23 01:36:05;;;;;;;12.68;5.65;;;4.40;88.60;;;;;;5046816;28;20039;-78
2021/01/23 01:38:31;;;;;;;9.05;5.60;;;4.30;88.60;;;;;;5048825;28;20031;-78
2021/01/23 01:40:57;;;;;;;10.68;5.25;;;4.20;88.60;;;;;;5049260;28;20040;-79
2021/01/23 01:43:23;;;;;;;8.95;4.93;;;4.20;88.50;;;;;;5042700;28;20016;-78
2021/01/23 01:45:48;;;;;;;7.95;4.50;;;4.20;88.70;;;;;;5048207;28;20047;-80
2021/01/23 01:48:15;;;;;;;7.85;4.38;;;4.10;88.60;;;;;;5049667;28;20032;-78
2021/01/23 01:50:41;;;;;;;7.60;4.85;;;4.10;88.70;;;;;;5054114;28;20049;-79
2021/01/23 01:53:07;;;;;;;10.35;4.57;;;4.10;88.80;;;;;;5048495;28;20154;-79
2021/01/23 01:55:35;;;;;;;8.00;4.45;;;4.00;89.00;;;;;;5046511;28;20028;-79
2021/01/23 01:58:01;;;;;;;8.13;4.68;;;4.00;89.00;;;;;;5050845;28;20487;-79
2021/01/23 02:00:27;;;;;;;8.25;4.25;;;4.00;89.00;;;;;;5062375;28;20439;-78
2021/01/23 02:02:59;;;;;;;8.02;4.38;;;4.00;89.00;;;;;;5046171;28;20028;-79
2021/01/23 02:05:39;;;;;;;9.00;4.55;;;3.90;89.10;;;;;;5047456;28;20040;-79
2021/01/23 02:08:30;;;;;;;7.25;4.10;;;3.80;89.10;;;;;;5050398;28;20112;-78
2021/01/23 02:11:13;;;;;;;7.55;4.85;;;3.80;89.20;;;;;;5047465;28;20025;-79
2021/01/23 02:14:05;;;;;;;9.43;4.57;;;3.80;89.20;;;;;;5058790;28;20057;-79
2021/01/23 02:16:36;;;;;;;11.20;5.72;;;3.70;89.20;;;;;;5037341;28;20036;-79
2021/01/23 02:19:38;;;;;;;9.85;5.63;;;3.70;89.30;;;;;;5047228;28;20037;-79
2021/01/23 02:22:19;;;;;;;9.23;5.53;;;3.70;89.40;;;;;;5049305;28;20120;-78
2021/01/23 02:24:49;;;;;;;8.82;5.40;;;3.60;89.60;;;;;;5047275;28;20454;-79
2021/01/23 02:27:33;;;;;;;12.27;5.68;;;3.70;89.70;;;;;;5048334;28;20025;-79
2021/01/23 02:30:24;;;;;;;10.23;6.93;;;3.70;89.70;;;;;;5051806;28;20067;-78
2021/01/23 02:32:55;;;;;;;10.05;5.90;;;3.70;89.80;;;;;;5049832;28;20094;-79
2021/01/23 02:35:23;;;;;;;10.68;6.00;;;3.70;89.80;;;;;;5054915;28;20049;-79
2021/01/23 02:37:50;;;;;;;9.23;5.20;;;3.80;89.90;;;;;;5047577;28;20024;-79
2021/01/23 02:40:17;;;;;;;9.00;6.07;;;3.80;89.80;;;;;;5041862;28;20765;-78
2021/01/23 02:42:42;;;;;;;9.98;5.43;;;3.80;89.80;;;;;;5047452;28;20098;-78
2021/01/23 02:45:11;;;;;;;8.98;5.60;;;3.80;89.70;;;;;;5043960;28;20041;-78
2021/01/23 02:47:37;;;;;;;10.43;5.55;;;3.80;89.80;;;;;;5052116;28;20036;-79
2021/01/23 02:50:05;;;;;;;11.45;6.32;;;3.70;89.80;;;;;;5049979;28;20119;-79
2021/01/23 02:52:46;;;;;;;8.43;5.63;;;3.70;89.90;;;;;;5046385;28;20093;-78
2021/01/23 02:55:15;;;;;;;10.15;6.35;;;3.60;89.80;;;;;;5043784;28;20342;-79
2021/01/23 02:57:42;;;;;;;10.50;6.38;;;3.60;89.80;;;;;;5047137;28;20372;-79
2021/01/23 03:00:11;;;;;;;10.63;6.22;;;3.60;89.90;;;;;;5046281;28;20040;-79
2021/01/23 03:02:55;;;;;;;10.68;6.68;;;3.50;90.00;;;;;;5047302;28;20032;-79
2021/01/23 03:05:30;;;;;;;10.75;5.90;;;3.50;90.20;;;;;;5043953;28;20460;-79
2021/01/23 03:07:56;;;;;;;10.43;5.78;;;3.40;90.20;;;;;;5050528;28;20025;-79
2021/01/23 03:10:36;;;;;;;8.85;5.93;;;3.30;90.20;;;;;;5052348;28;20075;-79
2021/01/23 03:13:03;;;;;;;11.00;6.72;;;3.30;90.40;;;;;;5050491;28;20373;-79
2021/01/23 03:15:28;;;;;;;9.32;6.40;;;3.30;90.50;;;;;;5052152;28;20033;-79
2021/01/23 03:17:54;;;;;;;11.60;5.82;;;3.30;90.50;;;;;;5053822;28;20035;-79
2021/01/23 03:20:20;;;;;;;12.23;5.88;;;3.20;90.60;;;;;;5051101;28;20079;-79
2021/01/23 03:22:46;;;;;;;11.77;6.05;;;3.20;90.70;;;;;;5051805;28;20013;-79
2021/01/23 03:25:11;;;;;;;10.75;5.70;;;3.20;90.80;;;;;;5050387;28;20029;-79
2021/01/23 03:27:37;;;;;;;10.43;6.10;;;3.20;90.90;;;;;;5062447;28;20495;-79
2021/01/23 03:30:04;;;;;;;8.15;5.13;;;3.10;90.80;;;;;;5049252;28;20036;-79
2021/01/23 03:32:30;;;;;;;13.18;5.47;;;3.10;90.70;;;;;;5051610;28;20419;-79
2021/01/23 03:34:56;;;;;;;12.25;5.63;;;3.10;90.70;;;;;;5053591;28;20033;-79
2021/01/23 03:37:24;;;;;;;11.30;5.22;;;3.00;90.70;;;;;;5049823;28;20025;-79
2021/01/23 03:39:50;;;;;;;11.48;5.25;;;3.10;90.80;;;;;;5044299;28;20057;-79
2021/01/23 03:42:16;;;;;;;7.53;4.90;;;3.10;90.80;;;;;;5050409;28;20037;-80
2021/01/23 03:44:42;;;;;;;10.77;4.70;;;3.00;90.90;;;;;;5052059;28;20040;-80
2021/01/23 03:47:07;;;;;;;9.13;4.50;;;3.00;90.80;;;;;;5051911;28;20155;-80
2021/01/23 03:49:33;;;;;;;8.63;5.15;;;3.10;90.70;;;;;;5062080;28;20025;-79
2021/01/23 03:51:58;;;;;;;9.93;4.70;;;3.10;90.80;;;;;;5052770;28;20041;-80
2021/01/23 03:54:24;;;;;;;8.40;4.40;;;3.00;90.70;;;;;;5052688;28;20587;-80
2021/01/23 03:56:50;;;;;;;10.75;5.35;;;3.00;90.80;;;;;;5057651;28;20140;-80
2021/01/23 03:59:15;;;;;;;11.00;5.72;;;3.00;90.80;;;;;;5057839;28;20056;-79
2021/01/23 04:01:41;;;;;;;10.05;6.18;;;2.90;90.90;;;;;;5049405;28;20379;-80
2021/01/23 04:04:06;;;;;;;10.20;5.93;;;2.90;91.10;;;;;;5050653;28;20525;-79
2021/01/23 04:06:32;;;;;;;9.38;5.78;;;2.90;91.20;;;;;;5051891;28;20102;-79
2021/01/23 04:08:58;;;;;;;11.45;5.88;;;2.90;91.10;;;;;;5058651;28;20029;-80
2021/01/23 04:11:23;;;;;;;9.85;5.32;;;2.90;91.20;;;;;;5051275;28;20041;-80
2021/01/23 04:13:49;;;;;;;12.73;5.50;;;2.90;91.10;;;;;;5050227;28;20433;-80
2021/01/23 04:16:14;;;;;;;10.80;5.43;;;2.90;91.30;;;;;;5047434;28;20051;-81
2021/01/23 04:18:40;;;;;;;11.82;5.78;;;2.90;91.40;;;;;;5049670;28;20743;-80
2021/01/23 04:21:06;;;;;;;11.25;5.97;;;2.90;91.50;;;;;;5050775;28;20029;-79
2021/01/23 04:23:33;;;;;;;11.60;5.95;;;2.80;91.50;;;;;;5047039;28;20060;-80
2021/01/23 04:25:59;;;;;;;11.48;5.28;;;2.80;91.50;;;;;;5049863;28;20131;-80
2021/01/23 04:28:25;;;;;;;11.48;5.50;;;2.80;91.60;;;;;;5052199;28;20037;-80
2021/01/23 04:30:50;;;;;;;10.85;5.20;;;2.80;91.60;;;;;;5049161;28;20123;-80
2021/01/23 04:33:16;;;;;;;12.95;5.57;;;2.80;91.60;;;;;;5051188;28;20123;-80
2021/01/23 04:35:42;;;;;;;9.80;5.35;;;2.70;91.60;;;;;;5053434;28;20037;-80
2021/01/23 04:38:07;;;;;;;13.20;5.30;;;2.70;91.70;;;;;;5049951;28;20033;-80
2021/01/23 04:40:35;;;;;;;12.27;5.68;;;2.70;91.70;;;;;;5051927;28;20098;-80
2021/01/23 04:43:01;;;;;;;11.32;5.18;;;2.60;91.70;;;;;;5042397;28;20029;-79
2021/01/23 04:45:27;;;;;;;14.82;5.13;;;2.60;91.80;;;;;;5055672;28;20055;-80
2021/01/23 04:47:56;;;;;;;9.75;4.90;;;2.60;91.80;;;;;;5055497;28;20556;-81
2021/01/23 04:50:22;;;;;;;8.88;4.47;;;2.60;91.80;;;;;;5047252;28;20484;-80
2021/01/23 04:52:48;;;;;;;9.65;5.00;;;2.60;91.80;;;;;;5050950;28;20040;-80
2021/01/23 04:55:14;;;;;;;10.52;5.03;;;2.50;91.80;;;;;;5049325;28;20041;-80
2021/01/23 04:57:43;;;;;;;8.57;4.55;;;2.50;91.80;;;;;;5060368;28;20141;-80
2021/01/23 05:00:10;;;;;;;9.55;5.03;;;2.50;91.80;;;;;;5049278;28;20052;-80
2021/01/23 05:02:36;;;;;;;8.77;4.43;;;2.50;91.90;;;;;;5047423;28;20029;-80
2021/01/23 05:05:04;;;;;;;10.20;5.10;;;2.40;91.70;;;;;;5051003;28;20091;-80
2021/01/23 05:07:37;;;;;;;11.23;4.53;;;2.40;91.70;;;;;;5051732;28;20028;-80
2021/01/23 05:10:23;;;;;;;8.82;5.43;;;2.40;91.60;;;;;;5051920;28;20043;-80
2021/01/23 05:12:53;;;;;;;9.88;4.80;;;2.40;91.70;;;;;;5049857;28;20068;-80
2021/01/23 05:15:22;;;;;;;8.57;4.15;;;2.30;91.80;;;;;;5046679;28;20018;-80
2021/01/23 05:17:54;;;;;;;9.55;4.63;;;2.30;91.90;;;;;;5052305;28;20542;-80
2021/01/23 05:20:30;;;;;;;8.75;4.40;;;2.30;92.00;;;;;;5053886;28;20029;-80
2021/01/23 05:22:56;;;;;;;8.30;4.15;;;2.30;92.00;;;;;;5053260;28;20064;-81
2021/01/23 05:25:26;;;;;;;10.05;4.88;;;2.30;92.00;;;;;;5047847;28;20053;-80
2021/01/23 05:27:52;;;;;;;8.88;4.18;;;2.30;92.00;;;;;;5047055;28;20492;-81
2021/01/23 05:30:18;;;;;;;8.20;3.45;;;2.30;92.00;;;;;;5048692;28;20033;-81
2021/01/23 05:32:44;;;;;;;12.18;4.45;;;2.30;92.00;;;;;;5045749;28;20565;-81
2021/01/23 05:35:14;;;;;;;8.75;4.13;;;2.30;92.00;;;;;;5047714;28;20045;-81
2021/01/23 05:37:40;;;;;;;11.27;4.28;;;2.30;91.90;;;;;;5045336;28;20124;-81
2021/01/23 05:40:07;;;;;;;10.65;4.32;;;2.30;92.00;;;;;;5047748;28;20112;-81
2021/01/23 05:42:41;;;;;;;7.50;4.15;;;2.30;92.00;;;;;;5057885;28;20048;-81
2021/01/23 05:45:12;;;;;;;7.18;4.13;;;2.20;92.10;;;;;;5047923;28;20064;-81
2021/01/23 05:47:39;;;;;;;9.68;3.92;;;2.30;92.10;;;;;;5048309;28;20120;-81
2021/01/23 05:50:07;;;;;;;11.65;4.10;;;2.20;92.00;;;;;;5043770;28;20464;-78
2021/01/23 05:52:33;;;;;;;8.73;3.85;;;2.20;92.00;;;;;;5047280;28;20041;-81
2021/01/23 05:55:00;;;;;;;9.25;3.88;;;2.20;92.00;;;;;;5047945;28;20461;-81
2021/01/23 05:57:27;;;;;;;9.10;3.58;;;2.20;92.10;;;;;;5046767;28;20040;-81
2021/01/23 05:59:53;;;;;;;10.15;4.05;;;2.20;91.90;;;;;;5059417;28;20072;-81
2021/01/23 06:02:21;;;;;;;7.35;3.80;;;2.10;91.90;;;;;;5048387;28;20146;-81
2021/01/23 06:04:53;;;;;;;10.73;4.40;;;2.10;92.00;;;;;;5056228;28;20041;-81
2021/01/23 06:07:41;;;;;;;11.50;4.00;;;2.10;92.10;;;;;;5053402;28;20036;-81
2021/01/23 06:10:22;;;;;;;9.85;4.57;;;2.10;92.10;;;;;;5051200;28;20047;-78
2021/01/23 06:12:54;;;;;;;12.05;5.65;;;2.10;92.20;;;;;;5050038;28;20544;-80
2021/01/23 06:15:32;;;;;;;12.07;4.80;;;2.10;92.20;;;;;;5046340;28;20055;-81
2021/01/23 06:18:06;;;;;;;8.57;5.05;;;2.10;92.20;;;;;;5046123;28;20033;-81
2021/01/23 06:20:41;;;;;;;9.70;4.88;;;2.10;92.10;;;;;;5049964;28;20476;-80
2021/01/23 06:23:11;;;;;;;10.20;4.45;;;2.10;92.20;;;;;;5050199;28;20120;-81
2021/01/23 06:25:49;;;;;;;15.10;5.10;;;2.10;92.30;;;;;;5047258;28;20048;-81
2021/01/23 06:28:40;;;;;;;12.35;5.15;;;2.10;92.40;;;;;;5051040;28;20040;-80
2021/01/23 06:31:25;;;;;;;9.13;3.90;;;2.20;92.50;;;;;;5045257;28;20060;-80
2021/01/23 06:33:51;;;;;;;11.68;4.97;;;2.30;92.50;;;;;;5047695;28;20040;-81
2021/01/23 06:36:17;;;;;;;7.05;4.22;;;2.30;92.40;;;;;;5051327;28;20124;-81
2021/01/23 06:39:06;;;;;;;11.90;4.50;;;2.30;92.40;;;;;;5054427;28;20028;-81
2021/01/23 06:41:33;;;;;;;10.85;5.00;;;2.40;92.20;;;;;;5054238;28;20037;-81
2021/01/23 06:44:16;;;;;;;8.45;4.55;;;2.30;92.10;;;;;;5045454;28;20041;-81
2021/01/23 06:46:50;;;;;;;11.57;4.60;;;2.40;92.00;;;;;;5047467;28;20112;-80
2021/01/23 06:49:16;;;;;;;10.93;4.85;;;2.40;91.90;;;;;;5047610;28;20028;-82
2021/01/23 06:51:42;;;;;;;10.48;5.07;;;2.30;91.80;;;;;;5047613;28;20037;-81
2021/01/23 06:54:19;;;;;;;12.00;5.18;;;2.30;91.90;;;;;;5050454;28;20029;-81
2021/01/23 06:56:53;;;;;;;11.20;6.00;;;2.30;91.80;;;;;;5053680;28;20021;-81
2021/01/23 06:59:33;;;;;;;10.82;5.30;;;2.30;91.70;;;;;;5048897;28;20437;-81
2021/01/23 07:01:59;;;;;;;10.82;6.45;;;2.30;91.80;;;;;;5051529;28;20025;-81
2021/01/23 07:04:26;;;;;;;14.50;5.97;;;2.30;91.60;;;;;;5050740;28;20361;-80
2021/01/23 07:06:53;;;;;;;13.93;6.50;;;2.20;91.70;;;;;;5045071;28;20021;-81
2021/01/23 07:09:19;;;;;;;12.77;5.20;;;2.20;91.80;;;;;;5049648;28;20083;-81
2021/01/23 07:11:45;;;;;;;11.68;5.57;;;2.10;91.70;;;;;;5048859;28;20033;-79
2021/01/23 07:14:11;;;;;;;14.07;7.28;;;2.20;91.70;;;;;;5047517;28;20033;-81
2021/01/23 07:16:38;;;;;;;13.48;6.40;;;2.10;91.70;;;;;;5046758;28;20037;-81
2021/01/23 07:19:08;;;;;;;12.02;4.95;;;2.10;91.80;;;;;;5049196;28;20375;-81
2021/01/23 07:21:38;;;;;;;13.23;5.93;;;2.10;91.90;;;;;;5053245;28;20032;-81
2021/01/23 07:24:04;;;;;;;11.95;5.57;;;2.10;91.90;;;;;;5049952;28;20090;-81
2021/01/23 07:26:33;;;;;;;14.05;5.00;;;2.10;91.90;;;;;;5047360;28;20415;-81
2021/01/23 07:28:59;;;;;;;15.02;5.35;;;2.10;92.00;;;;;;5048940;28;20063;-81
2021/01/23 07:31:30;;;;;;;10.85;5.13;;;2.10;92.00;;;;;;5051285;28;20525;-81
2021/01/23 07:33:58;;;;;;;11.48;5.43;;;2.10;92.10;;;;;;5060400;28;20032;-81
2021/01/23 07:36:33;;;;;;;8.43;4.90;;;2.10;92.10;;;;;;5048872;28;20166;-81
2021/01/23 07:39:01;;;;;;;10.43;5.20;;;2.10;92.10;;;;;;5045689;28;20029;-82
2021/01/23 07:41:31;;;;;;;14.20;5.75;;;2.10;92.00;;;;;;5049253;28;20067;-81
2021/01/23 07:43:59;;;;;;;12.68;5.30;;;2.10;92.00;;;;;;5047871;28;20464;-81
2021/01/23 07:46:24;;;;;;;10.60;4.95;;;2.10;92.10;;;;;;5046901;28;20052;-81
2021/01/23 07:48:51;;;;;;;12.93;5.40;;;2.10;92.10;;;;;;5049080;28;20029;-81
2021/01/23 07:51:27;;;;;;;9.15;5.07;;;2.10;92.00;;;;;;5046245;28;20115;-81
2021/01/23 07:54:02;;;;;;;13.57;6.30;;;2.20;92.00;;;;;;5056410;28;21010;-81
2021/01/23 07:56:28;;;;;;;12.00;6.07;;;2.20;92.00;;;;;;5049477;28;20044;-80
2021/01/23 07:58:54;;;;;;;16.88;6.22;;;2.20;91.90;;;;;;5049908;28;20056;-81
2021/01/23 08:01:20;;;;;;;12.55;5.80;;;2.20;91.90;;;;;;5045002;28;20972;-81
2021/01/23 08:03:45;;;;;;;11.38;4.95;;;2.20;91.90;;;;;;5047896;28;20508;-78
2021/01/23 08:06:24;;;;;;;11.48;5.00;;;2.20;91.90;;;;;;5053225;28;20033;-87
2021/01/23 08:08:51;;;;;;;9.35;4.38;;;2.30;91.90;;;;;;5050197;28;20029;-90
2021/01/23 08:11:37;;;;;;;14.70;4.82;;;2.30;91.80;;;;;;5036212;28;20090;-91
2021/01/23 08:14:13;;;;;;;11.00;4.78;;;2.40;91.60;;;;;;5046429;28;20040;-86
2021/01/23 08:16:52;;;;;;;9.10;4.25;;;2.40;91.60;;;;;;5050916;28;20147;-87
2021/01/23 08:19:18;;;;;;;11.57;3.85;;;2.40;91.50;;;;;;5051177;28;20116;-87
2021/01/23 08:22:02;;;;;;;8.98;3.75;;;2.50;91.40;;;;;;5051860;28;20121;-88
2021/01/23 08:24:29;;;;;;;9.73;3.85;;;2.50;91.40;;;;;;5049604;28;20044;-86
2021/01/23 08:26:59;;;;;;;11.20;4.78;;;2.60;91.20;;;;;;5066623;28;20048;-87
2021/01/23 08:29:25;;;;;;;12.82;4.60;;;2.60;91.20;;;;;;5053699;28;20038;-87
2021/01/23 08:32:04;;;;;;;8.18;4.30;;;2.70;91.10;;;;;;5062783;28;20136;-86
2021/01/23 08:34:30;;;;;;;10.20;5.05;;;2.70;91.10;;;;;;5066960;28;20058;-86
2021/01/23 08:36:56;;;;;;;10.85;5.30;;;2.70;91.00;;;;;;5064984;28;20089;-86
2021/01/23 08:39:21;;;;;;;12.30;5.38;;;2.70;90.90;;;;;;5069333;28;20036;-85
2021/01/23 08:41:47;;;;;;;10.70;5.45;;;2.80;90.90;;;;;;5064362;28;20049;-87
2021/01/23 08:44:13;;;;;;;9.57;4.80;;;2.80;90.80;;;;;;5048647;28;20458;-87
2021/01/23 08:46:38;;;;;;;13.05;5.60;;;2.90;90.80;;;;;;5053098;28;20028;-78
2021/01/23 08:49:04;;;;;;;9.23;5.78;;;2.90;90.60;;;;;;5041642;28;20096;-74
2021/01/23 08:51:31;;;;;;;13.32;5.15;;;3.00;90.50;;;;;;5044260;28;20106;-75
2021/01/23 08:53:57;;;;;;;11.00;5.43;;;3.00;90.50;;;;;;5047204;28;20387;-74
2021/01/23 08:56:22;;;;;;;12.10;5.07;;;3.00;90.30;;;;;;5045085;28;20039;-74
2021/01/23 08:58:48;;;;;;;13.75;6.40;;;3.10;90.30;;;;;;5049923;28;20068;-73
2021/01/23 09:01:14;;;;;;;8.82;4.85;;;3.10;90.20;;;;;;5042651;28;20075;-72
2021/01/23 09:03:40;;;;;;;11.10;5.85;;;3.10;90.10;;;;;;5051819;28;20037;-73
2021/01/23 09:06:07;;;;;;;15.60;8.65;;;3.20;90.10;;;;;;5046886;28;20052;-73
2021/01/23 09:08:33;;;;;;;16.80;7.78;;;3.30;89.80;;;;;;5050135;28;20062;-73
2021/01/23 09:10:58;;;;;;;15.30;8.48;;;3.30;89.60;;;;;;5044660;28;20041;-72
2021/01/23 09:13:24;;;;;;;16.85;8.20;;;3.30;89.60;;;;;;5046878;28;20396;-73
2021/01/23 09:15:50;;;;;;;15.02;9.73;;;3.30;89.70;;;;;;5043871;28;20053;-74
2021/01/23 09:18:15;;;;;;;15.77;9.35;;;3.40;89.50;;;;;;5044396;28;20040;-73
2021/01/23 09:20:41;;;;;;;17.10;12.75;;;3.40;89.60;;;;;;5047449;28;20116;-72
2021/01/23 09:23:07;;;;;;;14.38;7.55;;;3.50;89.50;;;;;;5045698;28;20075;-73
2021/01/23 09:25:32;;;;;;;11.52;7.47;;;3.50;89.50;;;;;;5048024;28;20424;-72
2021/01/23 09:27:58;;;;;;;13.50;6.82;;;3.60;89.50;;;;;;5046464;28;20060;-72
2021/01/23 09:30:24;;;;;;;12.30;6.30;;;3.60;89.70;;;;;;5045358;28;20045;-73
2021/01/23 09:32:49;;;;;;;12.13;5.85;;;3.70;89.50;;;;;;5037182;28;20043;-75
2021/01/23 09:35:15;;;;;;;12.68;6.00;;;3.70;89.30;;;;;;5049508;28;20030;-72
2021/01/23 09:37:41;;;;;;;13.80;7.00;;;3.90;89.30;;;;;;5039636;28;20026;-72
2021/01/23 09:40:08;;;;;;;14.85;6.40;;;3.90;89.00;;;;;;5050190;28;20040;-72
2021/01/23 09:42:34;;;;;;;12.32;6.00;;;4.00;88.90;;;;;;5047981;28;20108;-74
2021/01/23 09:44:59;;;;;;;16.17;7.15;;;4.00;89.00;;;;;;5047230;28;20116;-72
2021/01/23 09:47:25;;;;;;;11.77;7.10;;;4.10;88.60;;;;;;5046174;28;20037;-71
2021/01/23 09:49:51;;;;;;;13.98;7.57;;;4.10;88.60;;;;;;5048473;28;20033;-73
2021/01/23 09:52:16;;;;;;;12.27;6.75;;;4.20;88.40;;;;;;5045340;28;20133;-73
2021/01/23 09:54:42;;;;;;;14.13;6.82;;;4.30;88.30;;;;;;5055810;28;20037;-72
2021/01/23 09:57:08;;;;;;;17.50;8.02;;;4.30;88.00;;;;;;5050000;28;20033;-73
2021/01/23 09:59:34;;;;;;;12.40;8.55;;;4.30;87.90;;;;;;5050397;28;20033;-71
2021/01/23 10:02:02;;;;;;;16.35;8.82;;;4.30;88.00;;;;;;5044961;28;20535;-73
2021/01/23 10:04:28;;;;;;;14.63;7.80;;;4.40;88.00;;;;;;5044954;28;20061;-73
2021/01/23 10:06:55;;;;;;;19.02;8.70;;;4.60;87.70;;;;;;5048340;28;20453;-73
2021/01/23 10:09:21;;;;;;;12.20;7.35;;;4.60;87.70;;;;;;5045655;28;20045;-73
2021/01/23 10:11:47;;;;;;;13.90;7.55;;;4.80;87.30;;;;;;5049847;28;20032;-73
2021/01/23 10:14:13;;;;;;;14.45;7.28;;;4.80;86.80;;;;;;5048653;28;20053;-74
2021/01/23 10:16:39;;;;;;;14.80;7.10;;;4.90;86.70;;;;;;5028612;28;21040;-74
2021/01/23 10:19:05;;;;;;;13.27;7.50;;;5.10;86.70;;;;;;5031640;28;20114;-74
2021/01/23 10:21:31;;;;;;;14.88;7.88;;;5.10;86.10;;;;;;5034837;28;20036;-74
2021/01/23 10:23:58;;;;;;;13.02;6.97;;;5.20;86.00;;;;;;5030285;28;20025;-77
2021/01/23 10:26:24;;;;;;;16.30;8.23;;;5.20;85.40;;;;;;5032047;28;20029;-73
2021/01/23 10:28:49;;;;;;;16.10;8.07;;;5.30;85.30;;;;;;5032904;28;20091;-77
2021/01/23 10:31:15;;;;;;;15.55;8.00;;;5.30;85.10;;;;;;5042132;28;20033;-75
2021/01/23 10:33:40;;;;;;;15.95;9.38;;;5.30;85.40;;;;;;5043362;28;20060;-73
2021/01/23 10:36:06;;;;;;;17.83;10.45;;;5.10;85.50;;;;;;5038014;28;20033;-74
2021/01/23 10:38:32;;;;;;;19.35;10.27;;;5.10;86.00;;;;;;5037840;28;20657;-73
2021/01/23 10:40:57;;;;;;;18.98;10.90;;;5.10;86.00;;;;;;5036480;28;20459;-75
2021/01/23 10:43:23;;;;;;;16.30;10.02;;;5.00;86.40;;;;;;5036138;28;20036;-75
2021/01/23 10:45:49;;;;;;;17.20;10.45;;;5.10;86.30;;;;;;5039067;28;20037;-75
2021/01/23 10:48:15;;;;;;;19.05;11.70;;;5.10;86.20;;;;;;5044737;28;20484;-74
2021/01/23 10:50:40;;;;;;;18.90;13.32;;;5.10;85.80;;;;;;5038348;28;20051;-77
2021/01/23 10:53:06;;;;;;;20.77;12.32;;;5.10;86.10;;;;;;5055442;28;20038;-74
2021/01/23 10:55:32;;;;;;;17.85;11.80;;;5.10;86.00;;;;;;5042622;28;20021;-76
2021/01/23 10:57:57;;;;;;;19.95;12.93;;;5.10;85.90;;;;;;5050860;28;20029;-75
2021/01/23 11:00:23;;;;;;;21.60;13.52;;;5.10;86.20;;;;;;5040881;28;20076;-74
2021/01/23 11:02:49;;;;;;;19.60;14.20;;;5.10;86.10;;;;;;5044068;28;20090;-74
2021/01/23 11:05:14;;;;;;;24.38;15.38;;;5.10;86.10;;;;;;5039496;28;20033;-73
2021/01/23 11:07:40;;;;;;;24.58;14.73;;;5.10;86.20;;;;;;5039458;28;20497;-74
2021/01/23 11:10:06;;;;;;;36.22;16.42;;;5.00;86.30;;;;;;5037820;28;20045;-75
2021/01/23 11:12:33;;;;;;;23.98;16.48;;;4.90;86.30;;;;;;5048459;28;20061;-74
2021/01/23 11:14:59;;;;;;;24.70;17.38;;;4.90;86.90;;;;;;5042978;28;20033;-71
2021/01/23 11:17:24;;;;;;;27.10;16.58;;;4.90;86.70;;;;;;5041736;28;20072;-73
2021/01/23 11:19:51;;;;;;;25.42;15.65;;;4.90;87.00;;;;;;5036163;28;20033;-73
2021/01/23 11:22:17;;;;;;;24.13;16.20;;;4.80;86.70;;;;;;5039585;28;20057;-70
2021/01/23 11:24:42;;;;;;;27.35;18.67;;;4.90;87.10;;;;;;5044096;28;20083;-71
2021/01/23 11:27:08;;;;;;;27.85;19.88;;;5.00;87.20;;;;;;5049088;28;20036;-71
2021/01/23 11:29:34;;;;;;;30.48;19.77;;;5.10;86.40;;;;;;5047254;28;20029;-75
2021/01/23 11:32:00;;;;;;;30.20;20.38;;;5.10;86.50;;;;;;5047509;28;20445;-71
2021/01/23 11:34:26;;;;;;;29.88;18.85;;;5.10;86.40;;;;;;5052945;28;20044;-71
2021/01/23 11:36:52;;;;;;;30.80;20.80;;;5.00;86.60;;;;;;5046239;28;20460;-71
2021/01/23 11:39:17;;;;;;;37.05;23.48;;;5.00;86.20;;;;;;5046796;28;20495;-72
2021/01/23 11:41:44;;;;;;;36.03;24.60;;;4.80;86.50;;;;;;5050872;28;20044;-70
2021/01/23 11:44:10;;;;;;;37.95;22.63;;;4.70;87.00;;;;;;5049161;28;20197;-71
2021/01/23 11:46:36;;;;;;;38.42;22.90;;;4.70;87.20;;;;;;5047812;28;20507;-70
2021/01/23 11:49:02;;;;;;;32.03;22.90;;;4.70;87.50;;;;;;5044432;28;20029;-69
2021/01/23 11:51:27;;;;;;;40.45;25.48;;;4.70;87.40;;;;;;5043197;28;20033;-70
2021/01/23 11:53:53;;;;;;;37.50;24.13;;;4.70;87.30;;;;;;5045073;28;20033;-70
2021/01/23 11:56:19;;;;;;;38.22;26.33;;;4.60;87.70;;;;;;5046406;28;20029;-69
2021/01/23 11:58:45;;;;;;;40.90;26.42;;;4.60;87.60;;;;;;5040638;28;20091;-70
2021/01/23 12:01:11;;;;;;;38.47;25.48;;;4.60;87.80;;;;;;5050145;28;20040;-70
2021/01/23 12:03:36;;;;;;;44.78;26.13;;;4.60;87.90;;;;;;5046188;28;20037;-74
2021/01/23 12:06:03;;;;;;;35.83;24.77;;;4.60;87.90;;;;;;5046171;28;20484;-71
2021/01/23 12:08:29;;;;;;;39.30;25.15;;;4.60;87.80;;;;;;5044719;28;20099;-70
2021/01/23 12:10:55;;;;;;;35.65;23.95;;;4.60;87.90;;;;;;5051384;28;20509;-70
2021/01/23 12:13:21;;;;;;;44.63;28.33;;;4.60;87.80;;;;;;5045493;28;20071;-70
2021/01/23 12:15:46;;;;;;;32.08;21.52;;;4.70;87.90;;;;;;5048157;28;20117;-70
2021/01/23 12:18:12;;;;;;;33.78;22.10;;;4.80;87.50;;;;;;5040760;28;20465;-70
2021/01/23 12:20:38;;;;;;;31.45;20.38;;;4.70;87.60;;;;;;5046611;28;20453;-70
2021/01/23 12:23:03;;;;;;;37.65;25.17;;;4.70;87.50;;;;;;5044383;28;20048;-70
2021/01/23 12:25:29;;;;;;;34.90;24.55;;;4.80;87.40;;;;;;5049266;28;20102;-69
2021/01/23 12:27:55;;;;;;;35.47;23.73;;;4.80;87.20;;;;;;5047533;28;20108;-72
2021/01/23 12:30:21;;;;;;;35.58;22.77;;;4.80;87.40;;;;;;5048118;28;20369;-70
2021/01/23 12:32:47;;;;;;;30.90;20.08;;;4.80;87.30;;;;;;5046466;28;20029;-69
2021/01/23 12:35:14;;;;;;;32.35;21.05;;;4.80;87.30;;;;;;5049394;28;20910;-70
2021/01/23 12:37:41;;;;;;;30.85;20.98;;;4.90;87.40;;;;;;5043816;28;21547;-70
2021/01/23 12:40:08;;;;;;;33.58;21.73;;;4.90;87.20;;;;;;5051149;28;20037;-70
2021/01/23 12:42:35;;;;;;;33.25;21.95;;;4.90;87.10;;;;;;5044767;28;20099;-69
2021/01/23 12:45:00;;;;;;;29.55;19.70;;;4.90;87.00;;;;;;5044847;28;20055;-72
2021/01/23 12:47:29;;;;;;;29.73;22.40;;;5.00;87.00;;;;;;5041150;28;20577;-70
2021/01/23 12:49:55;;;;;;;30.48;22.60;;;5.00;87.10;;;;;;5044443;28;20508;-70
2021/01/23 12:52:21;;;;;;;32.00;22.75;;;5.10;87.10;;;;;;5051946;28;20345;-71